Time;durP1;ratioP1;P1;durP2;ratioP2;P2;SDS_P1;SDS_P2;PMS_P1;PMS_P2;Temp;Humidity;BMP_temperature;BMP_pressure;BME280_temperature;BME280_humidity;BME280_pressure;Samples;Min_cycle;Max_cycle;Signal;HPM_P1;HPM_P2
2022/06/03 00:01:56;;;;;;;17.98;6.47;;;;;;;20.41;79.78;95180.03;5029272;28;20180;-78
2022/06/03 00:04:44;;;;;;;14.43;6.90;;;;;;;20.42;80.34;95175.50;5005239;28;20928;-78
2022/06/03 00:07:44;;;;;;;9.07;5.43;;;;;;;20.44;80.42;95168.03;5033038;28;20214;-78
2022/06/03 00:10:29;;;;;;;15.43;5.53;;;;;;;20.46;80.02;95172.03;5032979;28;20176;-78
2022/06/03 00:13:06;;;;;;;12.68;6.72;;;;;;;20.47;79.85;95173.66;5025932;28;20251;-78
2022/06/03 00:15:46;;;;;;;8.73;5.13;;;;;;;20.39;79.99;95168.81;5012160;28;20188;-78
2022/06/03 00:18:30;;;;;;;11.07;4.63;;;;;;;20.40;80.27;95172.31;5023997;28;20248;-78
2022/06/03 00:21:07;;;;;;;17.10;5.25;;;;;;;20.24;81.03;95166.88;5033284;28;20179;-78
2022/06/03 00:23:47;;;;;;;10.10;5.43;;;;;;;20.22;80.97;95170.88;5033019;28;20268;-78
2022/06/03 00:26:34;;;;;;;13.23;4.63;;;;;;;20.25;81.01;95170.34;5033285;28;20180;-78
2022/06/03 00:28:59;;;;;;;7.10;4.30;;;;;;;20.28;80.44;95167.16;5025075;28;20698;-78
2022/06/03 00:31:42;;;;;;;14.40;4.28;;;;;;;20.12;80.49;95152.94;5033006;28;20259;-78
2022/06/03 00:34:30;;;;;;;11.75;4.50;;;;;;;20.17;80.41;95168.19;5032614;28;20263;-78
2022/06/03 00:37:04;;;;;;;9.00;3.90;;;;;;;20.17;80.31;95168.19;5032554;28;20222;-78
2022/06/03 00:40:00;;;;;;;8.05;3.88;;;;;;;20.23;80.20;95165.28;5032683;28;20258;-78
2022/06/03 00:42:31;;;;;;;6.82;4.28;;;;;;;20.26;80.27;95172.75;5032773;28;20182;-78
2022/06/03 00:45:21;;;;;;;17.33;4.80;;;;;;;20.20;80.57;95167.66;5032449;28;20203;-78
2022/06/03 00:47:58;;;;;;;7.32;3.90;;;;;;;20.25;80.40;95173.03;5032775;28;20983;-77
2022/06/03 00:50:56;;;;;;;9.52;3.97;;;;;;;20.22;80.30;95173.56;5078090;28;20961;-79
2022/06/03 00:53:39;;;;;;;8.68;4.25;;;;;;;20.21;80.69;95177.31;5078344;28;20991;-78
2022/06/03 00:56:42;;;;;;;9.05;4.30;;;;;;;20.19;80.78;95172.22;5080107;28;20181;-79
2022/06/03 00:59:08;;;;;;;7.13;4.20;;;;;;;20.15;80.86;95165.75;5080217;28;20189;-79
2022/06/03 01:01:47;;;;;;;7.97;3.95;;;;;;;20.06;81.02;95150.53;5080076;28;20213;-78
2022/06/03 01:04:30;;;;;;;6.13;4.05;;;;;;;20.13;80.79;95157.22;5079989;28;20177;-78
2022/06/03 01:07:23;;;;;;;7.47;4.30;;;;;;;20.14;80.63;95158.03;5074245;28;20231;-78
2022/06/03 01:10:24;;;;;;;14.52;4.57;;;;;;;20.13;80.56;95165.25;5063557;28;20313;-78
2022/06/03 01:13:05;;;;;;;7.07;3.97;;;;;;;20.05;80.18;95155.06;5069642;28;20576;-79
2022/06/03 01:15:59;;;;;;;15.52;5.85;;;;;;;20.08;80.04;95165.22;5077634;28;20181;-78
2022/06/03 01:18:37;;;;;;;9.48;4.97;;;;;;;20.04;80.46;95164.16;5060446;28;20166;-78
2022/06/03 01:21:31;;;;;;;12.68;5.47;;;;;;;19.95;80.95;95171.06;5077803;28;20571;-79
2022/06/03 01:23:59;;;;;;;10.30;4.88;;;;;;;19.78;81.54;95160.56;5044694;28;20182;-78
2022/06/03 01:27:07;;;;;;;10.05;4.95;;;;;;;19.76;82.05;95156.53;5077760;28;20702;-79
2022/06/03 01:30:06;;;;;;;8.75;4.60;;;;;;;19.78;81.80;95151.75;5067407;28;20248;-79
2022/06/03 01:32:56;;;;;;;11.00;4.93;;;;;;;19.73;82.34;95149.84;5056744;28;20193;-79
2022/06/03 01:35:35;;;;;;;9.68;4.88;;;;;;;19.77;82.43;95147.47;5079684;28;21124;-79
2022/06/03 01:38:37;;;;;;;9.18;5.38;;;;;;;19.75;81.61;95153.06;5074749;28;20551;-79
2022/06/03 01:41:30;;;;;;;12.57;4.93;;;;;;;19.72;81.95;95155.47;5069803;28;20180;-79
2022/06/03 01:44:19;;;;;;;12.05;4.53;;;;;;;19.68;81.94;95155.19;5077218;28;20182;-79
2022/06/03 01:47:06;;;;;;;12.25;4.75;;;;;;;19.62;82.06;95156.22;5077658;28;20240;-79
2022/06/03 01:50:00;;;;;;;10.57;4.82;;;;;;;19.62;82.30;95158.09;5052519;28;20276;-79
2022/06/03 01:52:51;;;;;;;15.68;4.60;;;;;;;19.59;82.31;95162.88;5079382;28;20169;-79
2022/06/03 01:55:41;;;;;;;8.75;4.05;;;;;;;19.62;82.48;95164.22;5071314;28;20169;-79
2022/06/03 01:58:15;;;;;;;15.20;5.05;;;;;;;19.55;82.26;95160.97;5068882;28;20195;-79
2022/06/03 02:00:48;;;;;;;8.25;4.40;;;;;;;19.50;82.26;95159.09;5066728;28;20178;-79
2022/06/03 02:03:35;;;;;;;13.88;4.18;;;;;;;19.52;82.21;95166.84;5063304;28;20170;-79
2022/06/03 02:06:15;;;;;;;12.93;4.82;;;;;;;19.47;82.57;95164.09;5048759;28;20265;-80
2022/06/03 02:09:13;;;;;;;7.30;4.40;;;;;;;19.30;82.58;95153.59;5063187;28;20198;-79
2022/06/03 02:11:53;;;;;;;8.63;4.80;;;;;;;19.43;82.74;95165.69;5062301;28;20182;-79
2022/06/03 02:14:37;;;;;;;6.65;5.20;;;;;;;19.40;83.03;95169.69;5055057;28;20202;-79
2022/06/03 02:17:12;;;;;;;10.18;5.05;;;;;;;19.41;83.00;95173.16;5063288;28;20649;-79
2022/06/03 02:20:01;;;;;;;7.40;4.63;;;;;;;19.37;82.92;95174.75;5063417;28;20197;-79
2022/06/03 02:22:53;;;;;;;8.10;4.70;;;;;;;19.32;83.01;95170.16;5061890;28;20652;-79
2022/06/03 02:25:36;;;;;;;9.57;4.70;;;;;;;19.06;84.25;95169.19;5057414;28;20738;-79
2022/06/03 02:30:24;;;;;;;9.43;5.15;;;;;;;19.04;84.88;95170.50;5054771;28;20183;-79
2022/06/03 02:31:52;;;;;;;17.02;9.13;;;;;;;18.97;84.58;95157.38;5027239;28;20194;-79
2022/06/03 02:34:33;;;;;;;15.90;6.75;;;;;;;19.07;84.54;95173.47;5062182;28;20648;-79
2022/06/03 02:37:15;;;;;;;9.82;5.53;;;;;;;19.05;84.59;95174.75;5063263;28;20182;-79
2022/06/03 02:40:08;;;;;;;9.73;5.05;;;;;;;19.03;84.50;95168.88;5062677;28;20167;-79
2022/06/03 02:42:45;;;;;;;15.52;7.28;;;;;;;19.02;84.76;95183.31;5062856;28;20186;-79
2022/06/03 02:45:25;;;;;;;12.68;6.90;;;;;;;19.01;84.83;95181.69;5056442;28;20170;-79
2022/06/03 02:48:00;;;;;;;16.95;5.53;;;;;;;18.89;84.88;95179.19;5067427;28;20545;-79
2022/06/03 02:50:31;;;;;;;8.95;6.18;;;;;;;18.83;85.71;95185.53;5062335;28;20233;-79
2022/06/03 02:53:15;;;;;;;17.83;9.23;;;;;;;18.79;85.60;95187.91;5053918;28;20639;-79
2022/06/03 02:55:49;;;;;;;22.63;12.70;;;;;;;18.75;85.98;95186.81;5061527;28;20179;-79
2022/06/03 02:58:43;;;;;;;17.27;12.50;;;;;;;18.73;85.61;95190.78;5059662;28;20198;-79
2022/06/03 03:01:27;;;;;;;23.88;13.63;;;;;;;18.74;85.67;95187.06;5057637;28;20182;-79
2022/06/03 03:04:28;;;;;;;32.75;21.27;;;;;;;18.42;86.26;95171.78;5066475;28;20174;-79
2022/06/03 03:07:32;;;;;;;29.65;19.65;;;;;;;18.45;87.08;95192.63;5058172;28;20177;-80
2022/06/03 03:10:13;;;;;;;41.97;21.38;;;;;;;18.52;87.34;95188.94;5057572;28;20214;-79
2022/06/03 03:12:39;;;;;;;29.05;19.77;;;;;;;18.61;86.97;95190.13;5060904;28;20174;-79
2022/06/03 03:15:16;;;;;;;30.52;20.00;;;;;;;18.66;86.42;95190.19;5059570;28;20178;-79
2022/06/03 03:18:02;;;;;;;31.27;20.70;;;;;;;18.70;86.34;95186.75;5064722;28;20166;-79
2022/06/03 03:21:09;;;;;;;20.02;11.63;;;;;;;18.71;86.43;95195.56;5067042;28;20183;-79
2022/06/03 03:23:53;;;;;;;27.23;15.30;;;;;;;18.78;86.12;95198.81;5052349;28;20194;-79
2022/06/03 03:26:36;;;;;;;24.35;15.20;;;;;;;18.86;86.70;95203.69;5062801;28;20189;-79
2022/06/03 03:29:11;;;;;;;25.27;14.07;;;;;;;18.95;85.75;95188.03;5068694;28;20232;-79
2022/06/03 03:32:03;;;;;;;17.60;11.60;;;;;;;19.14;85.60;95198.06;5057472;28;20186;-79
2022/06/03 03:34:47;;;;;;;29.88;14.30;;;;;;;19.33;85.23;95205.69;5046494;28;20194;-79
2022/06/03 03:37:40;;;;;;;32.65;19.88;;;;;;;19.53;84.78;95200.50;5062946;28;20677;-79
2022/06/03 03:40:30;;;;;;;22.40;13.80;;;;;;;19.68;83.98;95197.91;5062158;28;20269;-79
2022/06/03 03:43:13;;;;;;;19.55;13.35;;;;;;;19.86;82.80;95210.84;5061346;28;20241;-79
2022/06/03 03:45:41;;;;;;;17.73;11.70;;;;;;;19.97;82.56;95211.69;5052995;28;20214;-79
2022/06/03 03:48:37;;;;;;;19.45;13.75;;;;;;;20.12;82.36;95210.94;5059126;28;20179;-79
2022/06/03 03:51:15;;;;;;;12.85;7.40;;;;;;;20.24;81.61;95212.31;5061181;28;20191;-79
2022/06/03 03:53:58;;;;;;;21.00;7.95;;;;;;;20.31;80.79;95215.59;5054565;28;20178;-79
2022/06/03 03:56:49;;;;;;;22.05;11.68;;;;;;;20.51;81.12;95214.03;5062772;28;20674;-79
2022/06/03 03:59:35;;;;;;;17.25;7.82;;;;;;;20.73;80.18;95219.19;5059693;28;20683;-79
2022/06/03 04:02:34;;;;;;;9.40;6.15;;;;;;;20.93;79.76;95224.59;5064568;28;20178;-79
2022/06/03 04:05:50;;;;;;;11.63;6.55;;;;;;;21.18;78.38;95229.97;5064843;28;20170;-79
2022/06/03 04:08:49;;;;;;;17.58;7.18;;;;;;;21.37;76.78;95225.66;5048783;28;20217;-79
2022/06/03 04:11:44;;;;;;;37.13;20.33;;;;;;;21.61;75.60;95230.50;5030806;28;20241;-79
2022/06/03 04:14:28;;;;;;;20.00;6.68;;;;;;;21.83;76.25;95213.00;5056710;28;20565;-79
2022/06/03 04:17:17;;;;;;;15.15;6.68;;;;;;;21.94;75.89;95197.69;5060667;28;20652;-79
2022/06/03 04:20:17;;;;;;;21.48;8.25;;;;;;;22.31;74.81;95221.47;5060945;28;20417;-79
2022/06/03 04:23:01;;;;;;;18.85;9.55;;;;;;;22.53;73.66;95221.88;5058930;28;20194;-79
2022/06/03 04:26:00;;;;;;;34.20;14.57;;;;;;;22.74;72.18;95224.47;5058282;28;20580;-81
2022/06/03 04:29:02;;;;;;;20.08;11.40;;;;;;;22.93;72.34;95218.16;5062386;28;20701;-80
2022/06/03 04:31:41;;;;;;;22.23;10.15;;;;;;;23.15;73.13;95233.06;5072621;28;20646;-80
2022/06/03 04:34:09;;;;;;;17.67;11.20;;;;;;;23.31;72.95;95223.81;5063191;28;20191;-80
2022/06/03 04:36:38;;;;;;;27.77;12.93;;;;;;;23.52;72.98;95227.97;5062988;28;20175;-80
2022/06/03 04:39:40;;;;;;;27.35;10.30;;;;;;;23.73;71.95;95239.31;5058290;28;20290;-80
2022/06/03 04:42:56;;;;;;;13.98;8.40;;;;;;;23.76;71.88;95216.44;5059688;28;20181;-80
2022/06/03 04:45:53;;;;;;;13.65;6.20;;;;;;;24.23;70.41;95248.75;5051754;28;20198;-80
2022/06/03 04:48:55;;;;;;;16.88;6.95;;;;;;;24.49;69.20;95257.34;5057785;28;20257;-80
2022/06/03 04:51:39;;;;;;;19.30;5.60;;;;;;;24.71;67.75;95264.88;5069662;28;20170;-80
2022/06/03 04:54:55;;;;;;;11.20;6.10;;;;;;;24.91;67.08;95270.00;5060611;28;20186;-79
2022/06/03 04:57:29;;;;;;;14.55;4.68;;;;;;;25.15;68.16;95270.75;5028054;28;20574;-79
2022/06/03 05:00:18;;;;;;;11.40;4.35;;;;;;;25.26;65.87;95257.91;5020751;28;20246;-79
2022/06/03 05:03:38;;;;;;;5.43;3.45;;;;;;;25.60;65.74;95281.16;5031000;28;20191;-79
2022/06/03 05:06:18;;;;;;;7.72;3.72;;;;;;;25.95;63.63;95277.84;5042557;28;20183;-79
2022/06/03 05:09:08;;;;;;;10.68;3.97;;;;;;;26.21;61.89;95284.38;5055037;28;20210;-79
2022/06/03 05:11:52;;;;;;;10.55;4.50;;;;;;;26.46;61.67;95287.75;5059490;28;20232;-79
2022/06/03 05:14:32;;;;;;;9.30;4.72;;;;;;;26.61;60.37;95282.81;5062026;28;20579;-79
2022/06/03 05:17:09;;;;;;;6.35;3.67;;;;;;;26.63;59.75;95283.34;5062769;28;20175;-79
2022/06/03 05:20:10;;;;;;;5.47;3.92;;;;;;;26.66;59.26;95287.31;5062441;28;20174;-79
2022/06/03 05:22:54;;;;;;;7.13;4.20;;;;;;;26.78;61.66;95279.50;5042226;28;20199;-79
2022/06/03 05:25:56;;;;;;;16.13;8.13;;;;;;;27.00;59.54;95282.28;5060363;28;20176;-79
2022/06/03 05:28:43;;;;;;;16.63;8.00;;;;;;;27.15;59.14;95289.28;5055427;28;20213;-80
2022/06/03 05:31:27;;;;;;;12.93;4.63;;;;;;;27.37;59.86;95285.78;5045091;28;20552;-80
2022/06/03 05:33:58;;;;;;;13.00;5.03;;;;;;;27.73;58.44;95288.47;5060374;28;20259;-79
2022/06/03 05:36:41;;;;;;;8.60;3.80;;;;;;;28.05;58.00;95296.31;5062654;28;20244;-80
2022/06/03 05:39:13;;;;;;;13.93;3.55;;;;;;;28.34;57.06;95301.28;5062757;28;20179;-79
2022/06/03 05:44:47;;;;;;;8.57;4.28;;;;;;;28.64;54.32;95299.63;5055099;28;20173;-79
2022/06/03 05:47:34;;;;;;;8.23;3.88;;;;;;;28.74;55.67;95295.84;5064996;28;20178;-80
2022/06/03 05:50:05;;;;;;;13.73;4.65;;;;;;;28.92;54.50;95294.00;5098347;28;20616;-81
2022/06/03 05:52:36;;;;;;;8.02;4.30;;;;;;;29.07;53.34;95293.53;5059427;28;20183;-82
2022/06/03 05:55:20;;;;;;;9.10;4.15;;;;;;;29.16;52.95;95289.72;5065846;28;20178;-81
2022/06/03 05:58:13;;;;;;;9.50;4.55;;;;;;;29.31;54.31;95280.34;5065799;28;20205;-80
2022/06/03 06:01:04;;;;;;;8.13;3.65;;;;;;;29.21;53.35;95261.66;5063223;28;20175;-80
2022/06/03 06:03:30;;;;;;;6.88;3.58;;;;;;;29.45;53.24;95269.34;5046361;28;21638;-80
2022/06/03 06:06:04;;;;;;;6.07;3.65;;;;;;;29.60;54.87;95266.94;5063065;28;20178;-80
2022/06/03 06:09:08;;;;;;;8.38;3.70;;;;;;;29.52;52.97;95231.66;5063078;28;20253;-79
2022/06/03 06:11:40;;;;;;;8.35;4.38;;;;;;;29.51;51.36;95266.16;5037784;28;20662;-79
2022/06/03 06:14:14;;;;;;;15.15;6.82;;;;;;;29.41;53.44;95266.47;5063451;28;20217;-79
2022/06/03 06:16:42;;;;;;;6.38;3.35;;;;;;;29.64;53.27;95253.53;5065514;28;20550;-79
2022/06/03 06:19:37;;;;;;;4.57;3.17;;;;;;;29.80;53.31;95237.53;5063131;28;20227;-79
2022/06/03 06:22:09;;;;;;;7.95;3.60;;;;;;;30.23;52.96;95259.97;5056654;28;20179;-80
2022/06/03 06:24:34;;;;;;;8.15;4.50;;;;;;;30.41;51.46;95254.47;5062083;28;20189;-79
2022/06/03 06:27:00;;;;;;;11.73;6.32;;;;;;;30.51;51.09;95262.25;5071624;28;20175;-80
2022/06/03 06:29:53;;;;;;;8.82;4.30;;;;;;;30.60;51.09;95263.03;5062839;28;20253;-80
2022/06/03 06:32:30;;;;;;;10.32;3.65;;;;;;;30.63;50.48;95265.09;5054645;28;20214;-80
2022/06/03 06:35:33;;;;;;;8.15;3.75;;;;;;;30.63;49.39;95259.66;5066866;28;20543;-80
2022/06/03 06:38:36;;;;;;;8.00;3.20;;;;;;;30.80;50.65;95262.28;5057952;28;20179;-80
2022/06/03 06:41:16;;;;;;;8.20;3.42;;;;;;;30.92;50.80;95256.94;5063887;28;20648;-80
2022/06/03 06:44:09;;;;;;;12.73;3.88;;;;;;;31.06;52.55;95256.66;5054066;28;20178;-80
2022/06/03 06:46:57;;;;;;;5.85;3.50;;;;;;;31.21;49.56;95255.31;5051444;28;20187;-79
2022/06/03 06:49:30;;;;;;;6.47;3.58;;;;;;;31.14;49.21;95255.06;5061087;28;20231;-80
2022/06/03 06:52:06;;;;;;;8.93;3.67;;;;;;;31.24;50.16;95250.00;5054212;28;20171;-80
2022/06/03 06:55:02;;;;;;;7.22;3.53;;;;;;;31.30;49.16;95231.56;5062584;28;20167;-80
2022/06/03 06:57:43;;;;;;;7.10;3.70;;;;;;;30.76;47.92;95234.16;5053588;28;20228;-80
2022/06/03 07:00:24;;;;;;;13.10;4.13;;;;;;;30.94;49.59;95249.25;5064669;28;20249;-80
2022/06/03 07:03:08;;;;;;;8.60;3.70;;;;;;;31.19;48.29;95246.69;5058661;28;20251;-79
2022/06/03 07:05:36;;;;;;;7.88;4.10;;;;;;;31.41;48.08;95249.06;5060022;28;20178;-80
2022/06/03 07:08:20;;;;;;;7.15;3.95;;;;;;;31.31;46.10;95214.09;5062717;28;20189;-80
2022/06/03 07:11:07;;;;;;;6.63;3.83;;;;;;;30.91;47.85;95243.66;5054729;28;20185;-80
2022/06/03 07:13:38;;;;;;;5.30;3.30;;;;;;;30.99;48.56;95248.22;5051172;28;21018;-81
2022/06/03 07:19:47;;;;;;;8.00;3.83;;;;;;;31.29;48.75;95246.28;5061993;28;20258;-80
2022/06/03 07:22:10;;;;;;;5.78;3.10;;;;;;;31.76;46.30;95216.88;5053568;28;20245;-80
2022/06/03 07:25:01;;;;;;;35.65;10.88;;;;;;;32.11;45.72;95242.63;5061862;28;20174;-81
2022/06/03 07:27:35;;;;;;;6.20;3.58;;;;;;;32.11;44.97;95228.22;5058961;28;20238;-81
2022/06/03 07:30:09;;;;;;;30.08;8.07;;;;;;;32.27;46.61;95242.00;5062061;28;20194;-82
2022/06/03 07:32:50;;;;;;;9.30;3.40;;;;;;;32.22;45.12;95186.59;5062506;28;20170;-81
2022/06/03 07:35:30;;;;;;;4.07;2.92;;;;;;;32.75;44.04;95225.69;5060173;28;20173;-81
2022/06/03 07:38:18;;;;;;;10.55;3.30;;;;;;;32.87;44.85;95235.78;5057755;28;20240;-79
2022/06/03 07:41:04;;;;;;;5.47;3.47;;;;;;;32.82;44.49;95222.38;5052994;28;20185;-80
2022/06/03 07:43:41;;;;;;;7.38;3.55;;;;;;;33.10;43.73;95245.06;5064750;28;20250;-78
2022/06/03 07:46:15;;;;;;;6.05;3.50;;;;;;;33.08;41.51;95233.69;5048972;28;20162;-79
2022/06/03 07:48:41;;;;;;;10.73;4.88;;;;;;;33.03;41.29;95247.59;5066130;28;20221;-79
2022/06/03 07:51:14;;;;;;;52.58;6.10;;;;;;;32.61;42.76;95252.47;5062157;28;20261;-78
2022/06/03 07:53:43;;;;;;;55.72;6.22;;;;;;;32.45;43.12;95262.47;5062260;28;20174;-78
2022/06/03 07:56:09;;;;;;;8.73;3.80;;;;;;;32.02;43.88;95261.00;5069647;28;20166;-79
2022/06/03 07:58:37;;;;;;;44.05;5.15;;;;;;;31.76;44.82;95258.53;5061548;28;20175;-78
2022/06/03 08:01:20;;;;;;;5.53;3.58;;;;;;;31.47;45.98;95240.38;5061118;28;20185;-79
2022/06/03 08:03:47;;;;;;;9.43;3.92;;;;;;;31.16;43.74;95260.94;5061369;28;20214;-78
2022/06/03 08:06:13;;;;;;;60.85;7.10;;;;;;;30.67;44.91;95241.56;5066046;28;20181;-79
2022/06/03 08:11:34;;;;;;;50.15;6.47;;;;;;;30.50;46.52;95258.72;5058286;28;20178;-79
2022/06/03 08:14:01;;;;;;;9.82;4.07;;;;;;;30.74;47.39;95253.50;5063964;28;20242;-79
2022/06/03 08:16:36;;;;;;;10.10;3.95;;;;;;;30.88;46.42;95269.56;5064111;28;20228;-80
2022/06/03 08:19:26;;;;;;;12.60;5.55;;;;;;;30.94;47.30;95268.28;5061433;28;20166;-81
2022/06/03 08:21:58;;;;;;;9.10;4.10;;;;;;;30.69;47.93;95256.44;5068425;28;20189;-80
2022/06/03 08:24:27;;;;;;;18.17;6.65;;;;;;;30.42;47.63;95267.72;5061534;28;20177;-80
2022/06/03 08:27:01;;;;;;;9.85;4.72;;;;;;;30.14;50.59;95272.78;5061021;28;20570;-80
2022/06/03 08:29:39;;;;;;;24.17;9.60;;;;;;;30.44;51.29;95267.41;5060713;28;20581;-80
2022/06/03 08:32:13;;;;;;;15.90;5.07;;;;;;;30.69;50.58;95258.34;5055031;28;20185;-78
2022/06/03 08:35:03;;;;;;;12.88;4.25;;;;;;;30.89;48.94;95273.09;5058631;28;20167;-80
2022/06/03 08:37:34;;;;;;;6.47;3.42;;;;;;;30.79;46.80;95278.94;5046161;28;20240;-81
2022/06/03 08:40:09;;;;;;;9.07;4.07;;;;;;;30.64;48.61;95269.41;5060833;28;20159;-80
2022/06/03 08:42:54;;;;;;;563.88;128.27;;;;;;;30.55;50.37;95274.88;5062002;28;20180;-79
2022/06/03 08:45:40;;;;;;;33.92;10.15;;;;;;;30.44;47.16;95264.69;5060047;28;20198;-79
2022/06/03 08:48:12;;;;;;;88.43;13.55;;;;;;;30.48;45.96;95273.75;5054327;28;20254;-79
2022/06/03 08:50:50;;;;;;;42.20;11.07;;;;;;;30.59;48.12;95272.31;5056422;28;20205;-79
2022/06/03 08:53:20;;;;;;;42.40;8.95;;;;;;;30.27;45.10;95254.69;5060603;28;20185;-79
2022/06/03 08:56:06;;;;;;;7.32;4.00;;;;;;;30.53;46.96;95279.06;5032554;28;20218;-78
2022/06/03 08:58:56;;;;;;;9.27;4.00;;;;;;;30.73;46.55;95273.66;5063967;28;20549;-81
2022/06/03 09:01:25;;;;;;;12.65;3.50;;;;;;;30.84;46.44;95281.47;5044425;28;20625;-80
2022/06/03 09:04:05;;;;;;;7.82;4.90;;;;;;;30.93;46.53;95269.41;5052137;28;20163;-80
2022/06/03 09:06:49;;;;;;;8.77;3.60;;;;;;;31.08;45.40;95281.66;5052437;28;20171;-79
2022/06/03 09:09:32;;;;;;;3.67;3.10;;;;;;;30.48;44.25;95222.13;5060760;28;20286;-83
2022/06/03 09:12:14;;;;;;;8.27;3.60;;;;;;;30.12;47.20;95261.44;5060874;28;20646;-80
2022/06/03 09:14:43;;;;;;;8.52;3.80;;;;;;;30.25;46.93;95274.03;5064809;28;20167;-81
2022/06/03 09:17:42;;;;;;;13.68;3.85;;;;;;;30.37;47.48;95265.97;5064634;28;20185;-83
2022/06/03 09:20:39;;;;;;;7.07;3.75;;;;;;;30.55;47.24;95280.31;5065197;28;20170;-79
2022/06/03 09:23:08;;;;;;;9.48;3.45;;;;;;;30.36;46.88;95286.13;5058897;28;20304;-79
2022/06/03 09:25:36;;;;;;;6.72;3.47;;;;;;;29.94;47.11;95278.88;5064448;28;20192;-79
2022/06/03 09:28:05;;;;;;;9.70;4.25;;;;;;;29.56;48.54;95284.19;5055936;28;20170;-79
2022/06/03 09:30:37;;;;;;;11.15;4.25;;;;;;;29.02;50.52;95285.56;5069599;28;20665;-78
2022/06/03 09:33:06;;;;;;;11.20;4.55;;;;;;;28.92;51.35;95283.16;5064205;28;20264;-80
2022/06/03 09:35:34;;;;;;;5.70;3.42;;;;;;;28.97;48.07;95264.03;5046333;28;20179;-80
2022/06/03 09:38:02;;;;;;;4.32;3.33;;;;;;;29.26;46.76;95291.34;5055245;28;20181;-80
2022/06/03 09:40:31;;;;;;;7.30;3.20;;;;;;;29.28;44.43;95289.91;5055526;28;20151;-80
2022/06/03 09:43:17;;;;;;;8.10;2.88;;;;;;;29.12;44.18;95272.50;5065302;28;20189;-80
2022/06/03 09:45:47;;;;;;;4.78;2.92;;;;;;;28.97;45.71;95285.75;5065639;28;20194;-79
2022/06/03 09:48:16;;;;;;;6.05;3.40;;;;;;;28.68;44.77;95276.22;5056757;28;20159;-80
2022/06/03 09:50:46;;;;;;;4.55;3.28;;;;;;;28.59;45.38;95282.72;5063185;28;20234;-80
2022/06/03 09:53:13;;;;;;;6.13;3.15;;;;;;;28.44;46.02;95270.41;5054977;28;20181;-85
2022/06/03 09:55:49;;;;;;;7.45;4.63;;;;;;;28.21;44.19;95256.13;5053606;28;20167;-82
2022/06/03 09:58:19;;;;;;;43.63;5.60;;;;;;;28.15;42.99;95287.13;5055147;28;20644;-80
2022/06/03 10:00:51;;;;;;;54.75;6.65;;;;;;;27.95;44.56;95277.63;5059377;28;20163;-79
2022/06/03 10:03:17;;;;;;;12.70;8.07;;;;;;;27.88;46.96;95273.75;5059112;28;20175;-80
2022/06/03 10:05:50;;;;;;;7.13;2.80;;;;;;;27.91;45.95;95270.44;5064552;28;20178;-78
2022/06/03 10:08:20;;;;;;;6.78;3.20;;;;;;;27.63;46.35;95250.84;5070036;28;20171;-80
2022/06/03 10:13:33;;;;;;;3.75;2.55;;;;;;;27.71;47.01;95269.03;5060829;28;20216;-81
2022/06/03 10:16:00;;;;;;;8.65;3.47;;;;;;;27.65;47.86;95249.44;5069815;28;20158;-80
2022/06/03 10:18:40;;;;;;;11.00;5.03;;;;;;;27.81;47.86;95276.91;5056190;28;20175;-79
2022/06/03 10:21:05;;;;;;;17.52;10.15;;;;;;;27.83;49.92;95282.81;5054152;28;20158;-79
2022/06/03 10:23:35;;;;;;;10.40;5.35;;;;;;;27.74;50.15;95277.34;5054404;28;20159;-79
2022/06/03 10:26:01;;;;;;;10.50;7.63;;;;;;;27.81;49.86;95278.81;5054304;28;20252;-80
2022/06/03 10:28:38;;;;;;;11.13;4.45;;;;;;;27.86;49.73;95278.69;5058384;28;20175;-80
2022/06/03 10:31:16;;;;;;;6.63;3.47;;;;;;;28.04;50.11;95283.88;5065286;28;20216;-80
2022/06/03 10:34:00;;;;;;;6.28;4.10;;;;;;;28.24;48.71;95279.09;5063602;28;20178;-81
2022/06/03 10:36:56;;;;;;;7.53;4.10;;;;;;;28.47;48.44;95275.19;5073266;28;20178;-80
2022/06/03 10:39:30;;;;;;;6.40;3.40;;;;;;;28.48;47.49;95276.78;5060136;28;20195;-80
2022/06/03 10:42:00;;;;;;;5.00;3.30;;;;;;;28.59;48.46;95282.72;5061881;28;20261;-80
2022/06/03 10:44:36;;;;;;;11.80;5.03;;;;;;;28.52;49.37;95232.50;5063637;28;20182;-80
2022/06/03 10:47:14;;;;;;;6.78;4.30;;;;;;;28.98;46.62;95268.31;5063137;28;20176;-80
2022/06/03 10:49:53;;;;;;;10.65;4.43;;;;;;;29.19;49.59;95280.16;5069043;28;20253;-80
2022/06/03 11:01:34;;;;;;;6.28;3.67;;;;;;;29.28;45.04;95257.34;5067170;28;20555;-80
2022/06/03 11:04:00;;;;;;;6.40;3.55;;;;;;;28.72;45.40;95230.28;5064973;28;20200;-80
2022/06/03 11:06:36;;;;;;;3.80;2.88;;;;;;;28.69;46.01;95239.88;5059709;28;20577;-80
2022/06/03 11:09:06;;;;;;;4.40;3.38;;;;;;;28.73;46.71;95237.31;5053395;28;20907;-80
2022/06/03 11:11:44;;;;;;;5.13;3.35;;;;;;;28.78;45.10;95243.44;5052282;28;20172;-79
2022/06/03 11:14:32;;;;;;;52.88;5.63;;;;;;;28.72;42.80;95236.53;5053474;28;20167;-80
2022/06/03 11:17:07;;;;;;;50.53;5.95;;;;;;;28.57;46.15;95234.25;5052123;28;20159;-80
2022/06/03 11:19:45;;;;;;;7.15;3.53;;;;;;;28.67;46.00;95233.97;5053374;28;20216;-80
2022/06/03 11:22:33;;;;;;;7.20;3.80;;;;;;;28.72;45.64;95230.28;5053409;28;20152;-80
2022/06/03 11:25:19;;;;;;;5.20;3.65;;;;;;;28.79;43.29;95227.97;5052063;28;20167;-80
2022/06/03 11:28:03;;;;;;;4.50;2.88;;;;;;;28.74;43.74;95204.47;5051890;28;20175;-80
2022/06/03 11:30:34;;;;;;;54.75;6.63;;;;;;;28.78;44.25;95216.31;5060403;28;20198;-80
2022/06/03 11:33:06;;;;;;;55.63;6.63;;;;;;;28.75;45.08;95205.28;5057210;28;20249;-80
2022/06/03 11:35:39;;;;;;;8.13;2.95;;;;;;;28.97;44.27;95221.47;5065873;28;20166;-80
2022/06/03 11:38:08;;;;;;;47.53;4.53;;;;;;;29.02;44.06;95212.34;5057454;28;20174;-80
2022/06/03 11:40:38;;;;;;;49.35;4.10;;;;;;;28.92;43.76;95188.25;5063260;28;20681;-80
2022/06/03 11:43:13;;;;;;;54.10;6.90;;;;;;;29.08;43.95;95214.59;5055014;28;20198;-80
2022/06/03 11:45:51;;;;;;;46.13;5.70;;;;;;;28.95;43.60;95203.91;5057496;28;20194;-80
2022/06/03 11:48:27;;;;;;;5.60;3.45;;;;;;;29.01;45.23;95199.91;5055768;28;20178;-80
2022/06/03 11:50:53;;;;;;;4.72;2.80;;;;;;;29.09;44.23;95190.97;5052533;28;20745;-80
2022/06/03 11:53:26;;;;;;;13.88;3.25;;;;;;;29.15;43.01;95179.63;5065854;28;20177;-80
2022/06/03 11:56:00;;;;;;;55.45;7.20;;;;;;;29.37;41.66;95208.53;5063528;28;20178;-80
2022/06/03 11:58:58;;;;;;;58.70;7.00;;;;;;;29.52;42.26;95207.25;5057108;28;20182;-80
2022/06/03 12:01:37;;;;;;;54.03;6.68;;;;;;;29.55;41.95;95207.41;5049250;28;20657;-80
2022/06/03 12:04:27;;;;;;;57.45;7.97;;;;;;;29.67;42.67;95209.44;5052171;28;20170;-80
2022/06/03 12:07:25;;;;;;;58.75;6.78;;;;;;;29.75;42.03;95199.72;5052272;28;20163;-80
2022/06/03 12:10:15;;;;;;;56.17;6.32;;;;;;;29.87;41.15;95197.09;5064026;28;20293;-80
2022/06/03 12:15:31;;;;;;;521.95;261.55;;;;;;;29.87;39.72;95194.38;5049985;28;20305;-80
2022/06/03 12:18:06;;;;;;;66.68;42.00;;;;;;;29.79;40.06;95196.00;5057451;28;20233;-80
2022/06/03 12:20:31;;;;;;;10.15;9.32;;;;;;;29.66;39.68;95202.44;5057200;28;20174;-79
2022/06/03 12:23:17;;;;;;;5.85;2.63;;;;;;;29.22;39.73;95176.47;5072709;28;20173;-80
2022/06/03 12:26:06;;;;;;;5.72;2.90;;;;;;;29.15;40.27;95181.53;5040647;28;20571;-79
2022/06/03 12:28:45;;;;;;;3.95;2.47;;;;;;;29.10;40.60;95193.38;5063075;28;20189;-80
2022/06/03 12:31:36;;;;;;;5.40;2.45;;;;;;;28.93;40.62;95187.16;5066516;28;20224;-79
2022/06/03 12:34:01;;;;;;;4.10;3.00;;;;;;;28.94;41.19;95199.59;5060447;28;20190;-80
2022/06/03 12:36:27;;;;;;;2.63;2.20;;;;;;;28.83;39.07;95194.47;5069632;28;20178;-80
2022/06/03 12:39:18;;;;;;;7.63;3.28;;;;;;;28.71;39.26;95180.75;5054029;28;20202;-80
2022/06/03 12:41:46;;;;;;;9.10;3.53;;;;;;;28.79;41.45;95198.94;5053309;28;20229;-80
2022/06/03 12:44:43;;;;;;;6.13;3.83;;;;;;;28.78;41.17;95197.34;5072376;28;20186;-80
2022/06/03 12:47:25;;;;;;;5.22;3.13;;;;;;;28.83;41.83;95191.75;5072163;28;20197;-80
2022/06/03 12:49:53;;;;;;;6.65;3.38;;;;;;;28.82;43.40;95182.03;5068200;28;20298;-79
2022/06/03 12:52:21;;;;;;;6.00;2.90;;;;;;;28.81;42.57;95188.56;5060711;28;20166;-80
2022/06/03 12:54:58;;;;;;;7.75;3.00;;;;;;;28.77;43.08;95184.91;5068541;28;20197;-80
2022/06/03 12:57:36;;;;;;;1999.90;999.90;;;;;;;28.76;45.90;95182.47;5043566;28;20209;-79